createdAt,value
2019-05-26T00:00:54.671Z,0
2019-05-26T00:02:24.016Z,0
2019-05-26T00:02:54.716Z,0
2019-05-26T00:03:54.724Z,0
2019-05-26T00:04:54.747Z,0
2019-05-26T00:05:54.777Z,0
2019-05-26T00:06:54.791Z,0
2019-05-26T00:07:54.810Z,0
2019-05-26T00:08:54.821Z,0
2019-05-26T00:09:54.851Z,0
2019-05-26T00:10:54.863Z,0
2019-05-26T00:11:54.893Z,0
2019-05-26T00:13:09.573Z,0
2019-05-26T00:13:54.935Z,0
2019-05-26T00:14:54.994Z,0
2019-05-26T00:15:55.060Z,0
2019-05-26T00:16:55.073Z,0
2019-05-26T00:18:09.681Z,0
2019-05-26T00:18:55.038Z,0
2019-05-26T00:19:55.055Z,0
2019-05-26T00:20:55.069Z,0
2019-05-26T00:21:55.095Z,0
2019-05-26T00:22:54.876Z,0
2019-05-26T00:23:58.645Z,0
2019-05-26T00:24:55.169Z,0
2019-05-26T00:25:55.173Z,0
2019-05-26T00:26:55.197Z,0
2019-05-26T00:27:55.211Z,0
2019-05-26T00:28:55.476Z,0
2019-05-26T00:29:55.258Z,0
2019-05-26T00:30:55.274Z,0
2019-05-26T00:31:55.315Z,0
2019-05-26T00:32:55.351Z,0
2019-05-26T00:34:09.993Z,0
2019-05-26T00:34:55.351Z,0
2019-05-26T00:35:55.446Z,0
2019-05-26T00:37:10.065Z,0
2019-05-26T00:37:57.652Z,0
2019-05-26T00:39:55.450Z,0
2019-05-26T00:40:55.488Z,0
2019-05-26T00:41:55.492Z,0
2019-05-26T00:42:55.518Z,0
2019-05-26T00:43:55.537Z,0
2019-05-26T00:44:55.644Z,0
2019-05-26T00:45:55.576Z,0
2019-05-26T00:46:55.363Z,0
2019-05-26T00:47:55.622Z,0
2019-05-26T00:49:10.302Z,0
2019-05-26T00:49:55.680Z,0
2019-05-26T00:50:55.674Z,0
2019-05-26T00:51:55.695Z,0
2019-05-26T00:52:59.102Z,0
2019-05-26T00:54:10.399Z,0
2019-05-26T00:54:55.774Z,0
2019-05-26T00:55:55.773Z,0
2019-05-26T00:57:10.457Z,0
2019-05-26T00:58:10.476Z,0
2019-05-26T00:58:55.588Z,0
2019-05-26T01:00:10.519Z,0
2019-05-26T01:00:55.878Z,0
2019-05-26T01:01:55.899Z,0
2019-05-26T01:02:55.948Z,0
2019-05-26T01:03:55.944Z,0
2019-05-26T01:04:55.958Z,0
2019-05-26T01:05:55.979Z,0
2019-05-26T01:06:55.992Z,0
2019-05-26T01:08:12.857Z,0
2019-05-26T01:08:56.032Z,0
2019-05-26T01:09:56.056Z,0
2019-05-26T01:10:56.070Z,0
2019-05-26T01:11:56.109Z,0
2019-05-26T01:12:55.614Z,0
2019-05-26T01:13:56.164Z,0
2019-05-26T01:15:10.815Z,0
2019-05-26T01:15:56.197Z,0
2019-05-26T01:17:00.454Z,0
2019-05-26T01:17:56.213Z,0
2019-05-26T01:18:56.233Z,0
2019-05-26T01:20:10.943Z,0
2019-05-26T01:21:10.958Z,0
2019-05-26T01:21:56.308Z,0
2019-05-26T01:22:58.660Z,0
2019-05-26T01:23:56.359Z,0
2019-05-26T01:24:56.352Z,0
2019-05-26T01:25:56.379Z,0
2019-05-26T01:26:56.409Z,0
2019-05-26T01:27:56.416Z,0
2019-05-26T01:28:56.441Z,0
2019-05-26T01:30:11.121Z,0
2019-05-26T01:31:11.137Z,0
2019-05-26T01:31:56.492Z,0
2019-05-26T01:32:56.567Z,0
2019-05-26T01:33:56.286Z,0
2019-05-26T01:34:56.313Z,0
2019-05-26T01:36:11.251Z,0
2019-05-26T01:37:11.253Z,0
2019-05-26T01:37:56.630Z,0
2019-05-26T01:38:56.629Z,0
2019-05-26T01:39:57.302Z,0
2019-05-26T01:40:56.671Z,0
2019-05-26T01:41:56.691Z,0
2019-05-26T01:42:56.708Z,0
2019-05-26T01:43:56.735Z,0
2019-05-26T01:44:56.799Z,0
2019-05-26T01:45:56.770Z,0
2019-05-26T01:46:56.787Z,0
2019-05-26T01:47:56.811Z,0
2019-05-26T01:48:56.828Z,0
2019-05-26T01:49:56.845Z,0
2019-05-26T01:50:56.871Z,0
2019-05-26T01:53:11.572Z,0
2019-05-26T01:53:56.926Z,0
2019-05-26T01:55:11.625Z,0
2019-05-26T01:55:56.967Z,0
2019-05-26T01:57:11.653Z,0
2019-05-26T01:58:11.673Z,0
2019-05-26T01:58:57.022Z,0
2019-05-26T01:59:57.044Z,0
2019-05-26T02:01:11.724Z,0
2019-05-26T02:02:01.161Z,0
2019-05-26T02:02:57.098Z,0
2019-05-26T02:03:57.120Z,0
2019-05-26T02:04:57.166Z,0
2019-05-26T02:05:57.168Z,0
2019-05-26T02:06:57.177Z,0
2019-05-26T02:07:57.198Z,0
2019-05-26T02:09:11.882Z,4
2019-05-26T02:09:57.244Z,4
2019-05-26T02:10:57.259Z,0
2019-05-26T02:11:57.286Z,0
2019-05-26T02:13:57.315Z,4
2019-05-26T02:14:57.338Z,4
2019-05-26T02:15:57.363Z,4
2019-05-26T02:16:57.372Z,4
2019-05-26T02:17:57.398Z,4
2019-05-26T02:18:57.431Z,4
2019-05-26T02:19:57.435Z,8
2019-05-26T02:20:57.483Z,4
2019-05-26T02:21:57.470Z,8
2019-05-26T02:22:57.252Z,8
2019-05-26T02:24:12.172Z,8
2019-05-26T02:24:57.529Z,8
2019-05-26T02:25:57.558Z,12
2019-05-26T02:26:57.567Z,12
2019-05-26T02:27:57.615Z,16
2019-05-26T02:28:57.378Z,20
2019-05-26T02:29:57.627Z,20
2019-05-26T02:30:57.413Z,20
2019-05-26T02:31:57.683Z,24
2019-05-26T02:32:57.454Z,28
2019-05-26T02:34:12.371Z,36
2019-05-26T02:34:57.734Z,36
2019-05-26T02:36:57.790Z,48
2019-05-26T02:37:57.577Z,52
2019-05-26T02:39:09.252Z,56
2019-05-26T02:39:57.842Z,64
2019-05-26T02:40:57.857Z,72
2019-05-26T02:41:57.887Z,80
2019-05-26T02:43:57.919Z,96
2019-05-26T02:45:01.789Z,108
2019-05-26T02:46:57.963Z,128
2019-05-26T02:47:57.731Z,140
2019-05-26T02:49:12.662Z,148
2019-05-26T02:49:58.042Z,156
2019-05-26T02:50:58.053Z,160
2019-05-26T02:51:58.073Z,168
2019-05-26T02:52:57.840Z,180
2019-05-26T02:53:58.108Z,188
2019-05-26T02:54:58.125Z,200
2019-05-26T02:56:12.790Z,212
2019-05-26T02:57:12.816Z,224
2019-05-26T02:57:58.199Z,236
2019-05-26T02:58:58.199Z,248
2019-05-26T02:59:58.206Z,264
2019-05-26T03:00:58.242Z,284
2019-05-26T03:02:11.051Z,312
2019-05-26T03:02:58.286Z,324
2019-05-26T03:04:58.332Z,372
2019-05-26T03:07:13.007Z,428
2019-05-26T03:07:58.365Z,448
2019-05-26T03:08:58.383Z,476
2019-05-26T03:10:58.441Z,528
2019-05-26T03:12:13.121Z,556
2019-05-26T03:12:58.211Z,572
2019-05-26T03:13:58.478Z,596
2019-05-26T03:14:58.510Z,624
2019-05-26T03:15:58.533Z,652
2019-05-26T03:16:58.543Z,684
2019-05-26T03:19:13.256Z,768
2019-05-26T03:19:58.733Z,800
2019-05-26T03:20:58.606Z,840
2019-05-26T03:21:58.633Z,888
2019-05-26T03:22:58.664Z,932
2019-05-26T03:23:58.678Z,984
2019-05-26T03:25:13.224Z,1040
2019-05-26T03:26:13.393Z,1092
2019-05-26T03:26:58.725Z,1124
2019-05-26T03:28:13.409Z,1196
2019-05-26T03:28:58.756Z,1244
2019-05-26T03:29:58.796Z,1300
2019-05-26T03:30:58.812Z,1364
2019-05-26T03:31:58.599Z,1432
2019-05-26T03:32:58.932Z,1504
2019-05-26T03:33:58.663Z,1588
2019-05-26T03:34:58.945Z,1672
2019-05-26T03:36:13.584Z,1780
2019-05-26T03:37:13.348Z,1872
2019-05-26T03:37:58.691Z,1944
2019-05-26T03:38:58.959Z,2036
2019-05-26T03:39:58.985Z,2132
2019-05-26T03:41:59.016Z,2324
2019-05-26T03:44:28.377Z,2548
2019-05-26T03:44:59.074Z,2588
2019-05-26T03:45:58.867Z,2664
2019-05-26T03:46:58.868Z,2740
2019-05-26T03:47:59.154Z,2812
2019-05-26T03:49:13.822Z,2900
2019-05-26T03:50:13.835Z,2976
2019-05-26T03:50:59.198Z,3032
2019-05-26T03:51:59.216Z,3124
2019-05-26T03:52:59.006Z,3224
2019-05-26T03:53:59.164Z,3352
2019-05-26T03:54:59.263Z,3472
2019-05-26T03:55:59.299Z,3604
2019-05-26T03:56:59.302Z,3736
2019-05-26T03:58:13.737Z,3880
2019-05-26T03:59:14.011Z,4000
2019-05-26T04:00:14.039Z,4120
2019-05-26T04:00:59.392Z,4212
2019-05-26T04:02:04.689Z,4352
2019-05-26T04:03:14.077Z,4468
2019-05-26T04:03:59.445Z,4520
2019-05-26T04:04:59.460Z,4592
2019-05-26T04:05:59.485Z,4712
2019-05-26T04:06:59.494Z,4872
2019-05-26T04:08:04.224Z,5060
2019-05-26T04:08:59.549Z,5272
2019-05-26T04:10:11.911Z,5548
2019-05-26T04:10:59.575Z,5720
2019-05-26T04:11:59.597Z,5916
2019-05-26T04:12:59.626Z,6120
2019-05-26T04:13:59.636Z,6360
2019-05-26T04:15:14.324Z,6532
2019-05-26T04:15:59.685Z,6592
2019-05-26T04:17:03.210Z,6680
2019-05-26T04:17:59.515Z,6756
2019-05-26T04:18:59.790Z,6852
2019-05-26T04:19:59.508Z,6916
2019-05-26T04:20:59.775Z,7016
2019-05-26T04:22:14.518Z,7192
2019-05-26T04:22:59.660Z,7364
2019-05-26T04:23:59.854Z,7668
2019-05-26T04:24:59.852Z,8064
2019-05-26T04:25:59.880Z,8360
2019-05-26T04:26:59.907Z,8568
2019-05-26T04:27:59.916Z,8772
2019-05-26T04:28:59.937Z,8964
2019-05-26T04:29:59.964Z,9076
2019-05-26T04:31:14.648Z,9364
2019-05-26T04:32:04.458Z,9416
2019-05-26T04:33:00.021Z,9472
2019-05-26T04:34:00.070Z,10880
2019-05-26T04:35:14.725Z,12908
2019-05-26T04:36:14.768Z,12920
2019-05-26T04:37:00.101Z,13476
2019-05-26T04:39:00.151Z,14576
2019-05-26T04:40:26.212Z,15968
2019-05-26T04:41:00.204Z,15680
2019-05-26T04:42:00.205Z,13568
2019-05-26T04:43:00.250Z,13328
2019-05-26T04:44:00.246Z,13408
2019-05-26T04:45:00.298Z,14912
2019-05-26T04:46:00.391Z,15232
2019-05-26T04:47:14.722Z,14300
2019-05-26T04:48:14.749Z,13384
2019-05-26T04:49:00.351Z,14160
2019-05-26T04:50:00.372Z,14016
2019-05-26T04:51:00.409Z,15392
2019-05-26T04:52:15.072Z,15080
2019-05-26T04:53:13.225Z,16640
2019-05-26T04:54:00.486Z,18240
2019-05-26T04:55:00.469Z,17600
2019-05-26T04:56:00.495Z,17056
2019-05-26T04:57:00.518Z,18784
2019-05-26T04:58:00.287Z,20448
2019-05-26T04:59:00.311Z,20480
2019-05-26T05:00:00.583Z,20576
2019-05-26T05:01:15.271Z,22624
2019-05-26T05:02:00.694Z,21984
2019-05-26T05:03:15.314Z,23232
2019-05-26T05:04:00.705Z,23936
2019-05-26T05:05:00.695Z,24736
2019-05-26T05:06:00.710Z,26752
2019-05-26T05:07:00.735Z,29024
2019-05-26T05:08:00.766Z,30336
2019-05-26T05:09:00.841Z,33280
2019-05-26T05:10:00.801Z,33856
2019-05-26T05:11:00.827Z,33216
2019-05-26T05:12:00.850Z,32128
2019-05-26T05:13:00.696Z,29088
2019-05-26T05:15:00.920Z,23776
2019-05-26T05:16:00.977Z,24000
2019-05-26T05:17:00.970Z,24448
2019-05-26T05:19:15.696Z,31904
2019-05-26T05:20:01.059Z,37792
2019-05-26T05:21:01.076Z,32864
2019-05-26T05:22:01.152Z,30816
2019-05-26T05:23:00.853Z,40192
2019-05-26T05:24:01.139Z,41600
2019-05-26T05:25:01.145Z,44576
2019-05-26T05:26:01.175Z,43616
2019-05-26T05:27:01.219Z,51808
2019-05-26T05:28:00.980Z,51456
2019-05-26T05:29:01.260Z,51680
2019-05-26T05:30:01.459Z,54816
2019-05-26T05:31:01.337Z,56768
2019-05-26T05:32:01.338Z,59680
2019-05-26T05:33:01.097Z,69664
2019-05-26T05:34:16.033Z,65248
2019-05-26T05:35:01.405Z,57888
2019-05-26T05:36:01.173Z,67936
2019-05-26T05:37:01.445Z,74880
2019-05-26T05:38:01.467Z,70208
2019-05-26T05:39:01.492Z,66304
2019-05-26T05:42:16.239Z,66784
2019-05-26T05:43:01.597Z,62592
2019-05-26T05:44:01.642Z,58656
2019-05-26T05:45:01.655Z,51104
2019-05-26T05:46:01.684Z,55520
2019-05-26T05:47:01.721Z,62912
2019-05-26T05:49:01.789Z,48832
2019-05-26T05:50:01.800Z,47680
2019-05-26T05:51:01.814Z,45216
2019-05-26T05:52:01.844Z,48992
2019-05-26T05:53:01.938Z,39744
2019-05-26T05:54:01.931Z,41216
2019-05-26T05:56:01.974Z,42912
2019-05-26T05:57:02.914Z,44224
2019-05-26T05:58:16.674Z,43552
2019-05-26T05:59:16.700Z,44512
2019-05-26T06:00:02.094Z,47136
2019-05-26T06:01:02.091Z,40224
2019-05-26T06:02:02.126Z,41920
2019-05-26T06:03:02.143Z,46144
2019-05-26T06:05:02.234Z,49792
2019-05-26T06:06:16.890Z,49024
2019-05-26T06:07:02.258Z,48000
2019-05-26T06:08:02.359Z,51168
2019-05-26T06:09:16.979Z,50656
2019-05-26T06:11:17.637Z,51968
2019-05-26T06:12:04.340Z,55648
2019-05-26T06:13:02.416Z,55680
2019-05-26T06:14:02.204Z,51488
2019-05-26T06:15:02.525Z,51040
2019-05-26T06:17:02.541Z,53152
2019-05-26T06:18:17.227Z,50464
2019-05-26T06:19:02.585Z,52736
2019-05-26T06:20:17.276Z,57728
2019-05-26T06:21:02.642Z,54432
2019-05-26T06:22:17.342Z,55424
2019-05-26T06:23:02.698Z,55264
2019-05-26T06:24:02.728Z,57568
2019-05-26T06:25:02.579Z,56448
2019-05-26T06:26:02.585Z,58688
2019-05-26T06:27:02.822Z,59712
2019-05-26T06:28:03.413Z,60320
2019-05-26T06:29:02.872Z,58528
2019-05-26T06:30:06.284Z,60864
2019-05-26T06:31:17.588Z,57056
2019-05-26T06:32:04.810Z,55072
2019-05-26T06:36:03.070Z,62976
2019-05-26T06:37:03.099Z,65792
2019-05-26T06:38:17.795Z,65088
2019-05-26T06:39:03.166Z,65280
2019-05-26T06:40:03.183Z,61984
2019-05-26T06:41:03.222Z,65088
2019-05-26T06:42:03.239Z,53664
2019-05-26T06:43:03.288Z,56000
2019-05-26T06:44:03.329Z,67456
2019-05-26T06:45:03.329Z,66368
2019-05-26T06:46:03.371Z,63744
2019-05-26T06:48:03.518Z,40128
2019-05-26T06:49:03.456Z,54336
2019-05-26T06:50:18.159Z,64352
2019-05-26T06:51:03.518Z,66368
2019-05-26T06:52:03.536Z,69152
2019-05-26T06:53:03.567Z,69344
2019-05-26T06:54:18.267Z,67488
2019-05-26T06:55:03.634Z,67648
2019-05-26T06:57:03.689Z,68704
2019-05-26T06:58:03.720Z,65248
2019-05-26T06:59:07.635Z,62784
2019-05-26T07:00:03.783Z,58976
2019-05-26T07:01:04.017Z,58720
2019-05-26T07:02:18.505Z,46304
2019-05-26T07:04:03.904Z,51712
2019-05-26T07:05:03.965Z,56224
2019-05-26T07:07:03.995Z,60416
2019-05-26T07:08:04.029Z,60576
2019-05-26T07:09:18.717Z,64448
2019-05-26T07:10:03.912Z,58688
2019-05-26T07:11:04.121Z,62624
2019-05-26T07:13:04.182Z,70656
2019-05-26T07:14:04.203Z,60704
2019-05-26T07:15:04.241Z,38176
2019-05-26T07:16:04.266Z,53312
2019-05-26T07:17:04.305Z,45696
2019-05-26T07:18:04.331Z,55936
2019-05-26T07:20:19.063Z,57888
2019-05-26T07:21:19.088Z,65568
2019-05-26T07:22:04.462Z,64640
2019-05-26T07:23:06.366Z,65920
2019-05-26T07:24:04.522Z,66400
2019-05-26T07:25:04.572Z,61600
2019-05-26T07:26:04.582Z,53152
2019-05-26T07:27:04.619Z,52064
2019-05-26T07:28:04.640Z,55360
2019-05-26T07:29:04.676Z,57632
2019-05-26T07:30:04.701Z,54080
2019-05-26T07:31:04.754Z,56960
2019-05-26T07:32:19.448Z,53728
2019-05-26T07:33:04.810Z,55264
2019-05-26T07:34:04.869Z,54816
2019-05-26T07:35:04.863Z,56384
2019-05-26T07:36:04.896Z,55584
2019-05-26T07:37:04.933Z,52384
2019-05-26T07:38:04.961Z,45312
2019-05-26T07:39:04.989Z,43712
2019-05-26T07:40:05.017Z,41952
2019-05-26T07:41:19.713Z,40768
2019-05-26T07:42:17.064Z,38752
2019-05-26T07:43:05.123Z,37120
2019-05-26T07:44:05.150Z,37504
2019-05-26T07:45:05.179Z,34944
2019-05-26T07:46:05.219Z,33440
2019-05-26T07:47:05.245Z,34976
2019-05-26T07:48:05.274Z,33888
2019-05-26T07:49:19.962Z,34112
2019-05-26T07:50:05.382Z,31232
2019-05-26T07:51:20.021Z,31680
2019-05-26T07:52:05.398Z,32672
2019-05-26T07:54:05.719Z,38016
2019-05-26T07:55:20.142Z,40064
2019-05-26T07:56:05.527Z,39808
2019-05-26T07:57:20.259Z,37280
2019-05-26T07:58:05.706Z,37760
2019-05-26T08:00:05.634Z,34688
2019-05-26T08:01:05.426Z,36000
2019-05-26T08:02:05.697Z,36672
2019-05-26T08:03:05.724Z,36704
2019-05-26T08:04:05.774Z,35872
2019-05-26T08:05:05.778Z,35296
2019-05-26T08:06:20.473Z,33600
2019-05-26T08:07:05.866Z,35616
2019-05-26T08:08:19.133Z,37280
2019-05-26T08:09:05.899Z,35712
2019-05-26T08:11:05.973Z,33824
2019-05-26T08:12:05.990Z,33152
2019-05-26T08:13:20.686Z,31552
2019-05-26T08:14:06.048Z,30560
2019-05-26T08:15:06.098Z,30240
2019-05-26T08:16:06.112Z,30016
2019-05-26T08:17:06.159Z,28704
2019-05-26T08:18:20.833Z,27232
2019-05-26T08:19:06.207Z,27904
2019-05-26T08:20:06.239Z,29184
2019-05-26T08:21:06.007Z,30720
2019-05-26T08:22:06.292Z,29632
2019-05-26T08:23:06.317Z,28256
2019-05-26T08:24:21.006Z,26592
2019-05-26T08:25:06.374Z,27840
2019-05-26T08:26:06.163Z,29088
2019-05-26T08:27:06.497Z,29792
2019-05-26T08:28:06.467Z,30048
2019-05-26T08:29:21.148Z,29344
2019-05-26T08:30:06.299Z,28768
2019-05-26T08:31:06.551Z,28448
2019-05-26T08:32:06.570Z,28288
2019-05-26T08:34:06.628Z,26400
2019-05-26T08:35:06.661Z,25408
2019-05-26T08:36:21.353Z,24704
2019-05-26T08:37:21.381Z,24224
2019-05-26T08:38:06.773Z,24352
2019-05-26T08:39:21.435Z,24096
2019-05-26T08:40:07.015Z,24512
2019-05-26T08:42:06.960Z,24768
2019-05-26T08:43:06.388Z,24768
2019-05-26T08:44:21.581Z,24128
2019-05-26T08:45:06.953Z,24096
2019-05-26T08:46:06.983Z,24096
2019-05-26T08:47:07.012Z,23872
2019-05-26T08:48:07.042Z,23616
2019-05-26T08:49:07.060Z,23424
2019-05-26T08:50:07.088Z,23136
2019-05-26T08:51:06.875Z,23520
2019-05-26T08:52:07.149Z,23424
2019-05-26T08:53:07.218Z,24064
2019-05-26T08:54:07.203Z,24480
2019-05-26T08:55:07.244Z,24608
2019-05-26T08:56:07.305Z,24416
2019-05-26T08:57:21.954Z,23968
2019-05-26T08:59:07.350Z,24320
2019-05-26T09:00:07.386Z,24608
2019-05-26T09:01:07.484Z,24864
2019-05-26T09:02:07.441Z,24608
2019-05-26T09:03:07.551Z,24320
2019-05-26T09:04:07.491Z,22912
2019-05-26T09:05:07.527Z,24576
2019-05-26T09:06:07.563Z,25312
2019-05-26T09:07:22.244Z,21280
2019-05-26T09:09:07.638Z,24192
2019-05-26T09:10:22.330Z,24672
2019-05-26T09:11:07.696Z,20384
2019-05-26T09:12:07.725Z,23904
2019-05-26T09:13:08.815Z,18848
2019-05-26T09:14:07.779Z,20352
2019-05-26T09:15:07.853Z,18528
2019-05-26T09:16:22.501Z,19776
2019-05-26T09:17:07.872Z,19456
2019-05-26T09:18:08.057Z,17920
2019-05-26T09:19:07.921Z,15840
2019-05-26T09:20:11.098Z,14252
2019-05-26T09:21:07.977Z,18208
2019-05-26T09:22:22.674Z,18304
2019-05-26T09:23:08.040Z,16264
2019-05-26T09:24:08.066Z,14036
2019-05-26T09:25:08.099Z,12824
2019-05-26T09:26:08.138Z,15752
2019-05-26T09:27:22.816Z,20320
2019-05-26T09:28:22.845Z,23296
2019-05-26T09:29:08.216Z,17696
2019-05-26T09:30:08.286Z,17248
2019-05-26T09:31:08.343Z,22400
2019-05-26T09:32:22.952Z,17248
2019-05-26T09:33:08.318Z,16364
2019-05-26T09:34:08.341Z,19872
2019-05-26T09:35:08.378Z,20544
2019-05-26T09:36:08.399Z,19392
2019-05-26T09:37:08.427Z,14632
2019-05-26T09:38:23.139Z,14016
2019-05-26T09:39:08.488Z,13764
2019-05-26T09:40:08.512Z,13220
2019-05-26T09:42:08.643Z,15520
2019-05-26T09:43:22.922Z,19584
2019-05-26T09:44:08.632Z,16324
2019-05-26T09:45:08.657Z,15736
2019-05-26T09:46:23.354Z,21184
2019-05-26T09:47:08.733Z,19296
2019-05-26T09:48:23.401Z,18304
2019-05-26T09:49:08.770Z,21408
2019-05-26T09:50:08.790Z,20224
2019-05-26T09:51:08.821Z,19904
2019-05-26T09:52:08.844Z,19936
2019-05-26T09:53:08.874Z,19264
2019-05-26T09:54:12.419Z,15952
2019-05-26T09:55:08.953Z,20224
2019-05-26T09:56:08.964Z,19680
2019-05-26T09:58:09.015Z,20256
2019-05-26T09:59:09.044Z,14296
2019-05-26T10:00:09.105Z,13688
2019-05-26T10:01:09.101Z,14540
2019-05-26T10:02:09.240Z,14812
2019-05-26T10:03:23.573Z,18368
2019-05-26T10:04:23.849Z,18624
2019-05-26T10:05:09.214Z,18848
2019-05-26T10:06:09.240Z,19168
2019-05-26T10:07:15.901Z,18848
2019-05-26T10:08:09.301Z,15728
2019-05-26T10:09:09.360Z,18848
2019-05-26T10:10:09.363Z,18400
2019-05-26T10:11:09.379Z,18368
2019-05-26T10:12:09.411Z,14260
2019-05-26T10:13:09.447Z,14316
2019-05-26T10:14:09.219Z,18304
2019-05-26T10:16:09.606Z,15964
2019-05-26T10:17:09.556Z,14744
2019-05-26T10:18:09.584Z,17216
2019-05-26T10:19:24.267Z,16432
2019-05-26T10:20:09.648Z,15488
2019-05-26T10:21:09.701Z,15720
2019-05-26T10:22:09.691Z,17888
2019-05-26T10:23:09.718Z,17600
2019-05-26T10:24:09.752Z,16576
2019-05-26T10:25:24.441Z,16660
2019-05-26T10:26:09.566Z,17440
2019-05-26T10:27:09.827Z,16308
2019-05-26T10:28:09.866Z,15648
2019-05-26T10:29:09.879Z,13560
2019-05-26T10:30:24.604Z,13664
2019-05-26T10:31:09.940Z,13828
2019-05-26T10:32:09.718Z,13648
2019-05-26T10:33:09.996Z,14272
2019-05-26T10:34:13.045Z,13544
2019-05-26T10:35:10.052Z,13772
2019-05-26T10:36:10.091Z,14148
2019-05-26T10:37:10.142Z,13836
2019-05-26T10:38:10.248Z,13344
2019-05-26T10:39:10.153Z,13056
2019-05-26T10:40:10.195Z,11740
2019-05-26T10:41:10.220Z,11588
2019-05-26T10:42:24.903Z,12228
2019-05-26T10:43:10.280Z,13388
2019-05-26T10:44:10.297Z,13360
2019-05-26T10:45:10.319Z,13516
2019-05-26T10:46:10.161Z,15088
2019-05-26T10:47:25.038Z,13360
2019-05-26T10:48:10.581Z,13472
2019-05-26T10:49:10.458Z,18688
2019-05-26T10:50:10.472Z,19264
2019-05-26T10:51:24.902Z,20256
2019-05-26T10:52:10.506Z,16436
2019-05-26T10:53:10.541Z,15820
2019-05-26T10:54:10.564Z,15724
2019-05-26T10:55:25.272Z,17472
2019-05-26T10:56:10.613Z,17056
2019-05-26T10:57:10.727Z,17568
2019-05-26T10:58:10.667Z,16764
2019-05-26T10:59:10.705Z,16244
2019-05-26T11:00:10.730Z,16320
2019-05-26T11:01:10.750Z,15104
2019-05-26T11:02:10.290Z,15844
2019-05-26T11:04:10.839Z,16360
2019-05-26T11:05:25.523Z,18176
2019-05-26T11:06:10.889Z,15844
2019-05-26T11:07:29.219Z,15012
2019-05-26T11:08:11.017Z,15132
2019-05-26T11:09:10.972Z,16212
2019-05-26T11:10:25.668Z,15188
2019-05-26T11:11:11.031Z,15312
2019-05-26T11:13:25.744Z,15360
2019-05-26T11:14:11.104Z,15128
2019-05-26T11:15:25.801Z,14816
2019-05-26T11:16:25.828Z,14376
2019-05-26T11:17:10.994Z,13992
2019-05-26T11:18:11.216Z,14268
2019-05-26T11:19:11.244Z,15816
2019-05-26T11:20:11.286Z,16452
2019-05-26T11:21:14.835Z,14852
2019-05-26T11:22:11.331Z,15648
2019-05-26T11:23:26.013Z,15440
2019-05-26T11:24:11.431Z,16420
2019-05-26T11:25:11.411Z,15032
2019-05-26T11:26:11.179Z,14276
2019-05-26T11:27:19.398Z,14124
2019-05-26T11:28:11.543Z,13784
2019-05-26T11:29:11.511Z,13656
2019-05-26T11:31:11.324Z,13644
2019-05-26T11:32:11.603Z,13432
2019-05-26T11:33:11.625Z,14848
2019-05-26T11:34:26.340Z,13824
2019-05-26T11:35:11.677Z,13692
2019-05-26T11:36:11.697Z,13664
2019-05-26T11:38:11.766Z,14452
2019-05-26T11:39:26.466Z,13656
2019-05-26T11:40:11.808Z,13812
2019-05-26T11:41:11.851Z,13788
2019-05-26T11:42:20.683Z,13432
2019-05-26T11:43:38.471Z,14684
2019-05-26T11:44:24.694Z,16140
2019-05-26T11:45:11.950Z,16608
2019-05-26T11:46:11.975Z,15480
2019-05-26T11:47:11.998Z,15448
2019-05-26T11:48:12.028Z,15228
2019-05-26T11:49:12.066Z,14696
2019-05-26T11:50:12.092Z,14036
2019-05-26T11:51:12.124Z,13780
2019-05-26T11:52:12.277Z,14104
2019-05-26T11:53:12.162Z,14460
2019-05-26T11:54:41.525Z,13332
2019-05-26T11:55:12.308Z,13064
2019-05-26T11:56:26.963Z,13204
2019-05-26T11:57:12.277Z,13260
2019-05-26T11:58:12.299Z,12700
2019-05-26T11:59:12.327Z,11864
2019-05-26T12:00:14.098Z,11624
2019-05-26T12:01:12.396Z,11280
2019-05-26T12:02:12.417Z,10784
2019-05-26T12:03:12.461Z,11236
2019-05-26T12:04:27.123Z,11100
2019-05-26T12:05:12.269Z,11388
2019-05-26T12:06:12.513Z,11224
2019-05-26T12:07:12.597Z,10952
2019-05-26T12:08:12.583Z,11028
2019-05-26T12:09:12.599Z,11240
2019-05-26T12:10:16.546Z,11536
2019-05-26T12:11:12.719Z,11904
2019-05-26T12:12:12.674Z,12284
2019-05-26T12:13:12.465Z,12804
2019-05-26T12:14:12.480Z,13260
2019-05-26T12:15:12.754Z,14128
2019-05-26T12:16:28.910Z,14288
2019-05-26T12:17:12.840Z,15728
2019-05-26T12:18:12.832Z,14852
2019-05-26T12:19:12.873Z,15432
2019-05-26T12:20:12.938Z,13980
2019-05-26T12:21:12.922Z,14712
2019-05-26T12:22:12.964Z,13992
2019-05-26T12:23:12.971Z,12944
2019-05-26T12:24:13.008Z,13532
2019-05-26T12:25:13.046Z,12980
2019-05-26T12:26:27.720Z,13076
2019-05-26T12:28:13.147Z,13448
2019-05-26T12:29:13.124Z,13144
2019-05-26T12:30:27.824Z,12856
2019-05-26T12:31:13.186Z,12348
2019-05-26T12:32:27.887Z,12036
2019-05-26T12:33:13.319Z,12016
2019-05-26T12:34:13.260Z,12248
2019-05-26T12:35:13.304Z,12016
2019-05-26T12:36:13.316Z,12056
2019-05-26T12:38:28.038Z,12112
2019-05-26T12:39:13.398Z,12144
2019-05-26T12:40:28.090Z,12512
2019-05-26T12:41:13.459Z,12836
2019-05-26T12:42:28.148Z,12740
2019-05-26T12:44:30.506Z,12912
2019-05-26T12:45:13.571Z,12900
2019-05-26T12:46:13.639Z,12976
2019-05-26T12:47:13.634Z,13084
2019-05-26T12:48:13.642Z,13100
2019-05-26T12:49:13.665Z,13076
2019-05-26T12:50:13.691Z,13092
2019-05-26T12:51:13.719Z,13076
2019-05-26T12:52:28.407Z,12816
2019-05-26T12:53:13.777Z,12760
2019-05-26T12:54:13.552Z,12720
2019-05-26T12:55:16.865Z,12340
2019-05-26T12:56:13.855Z,11964
2019-05-26T12:57:13.904Z,11872
2019-05-26T12:58:28.567Z,11968
2019-05-26T12:59:13.936Z,12024
2019-05-26T13:00:13.972Z,11996
2019-05-26T13:01:13.988Z,11860
2019-05-26T13:02:14.026Z,11916
2019-05-26T13:03:28.706Z,12016
2019-05-26T13:04:28.747Z,11880
2019-05-26T13:05:14.179Z,11892
2019-05-26T13:06:17.354Z,11816
2019-05-26T13:07:28.808Z,11716
2019-05-26T13:08:14.173Z,11580
2019-05-26T13:09:14.195Z,11500
2019-05-26T13:11:14.001Z,11888
2019-05-26T13:12:14.039Z,11704
2019-05-26T13:13:14.302Z,11552
2019-05-26T13:14:28.996Z,11440
2019-05-26T13:15:14.357Z,11648
2019-05-26T13:16:14.387Z,11400
2019-05-26T13:17:14.440Z,11300
2019-05-26T13:18:14.440Z,11412
2019-05-26T13:19:14.468Z,11484
2019-05-26T13:20:14.505Z,11744
2019-05-26T13:21:14.585Z,11956
2019-05-26T13:22:14.542Z,12216
2019-05-26T13:23:14.586Z,11824
2019-05-26T13:24:14.598Z,11628
2019-05-26T13:25:14.635Z,11552
2019-05-26T13:27:14.692Z,11492
2019-05-26T13:28:14.735Z,11180
2019-05-26T13:29:30.783Z,10764
2019-05-26T13:30:14.782Z,10396
2019-05-26T13:31:14.785Z,9864
2019-05-26T13:32:29.500Z,9680
2019-05-26T13:34:14.875Z,9472
2019-05-26T13:35:14.896Z,9540
2019-05-26T13:36:14.925Z,9580
2019-05-26T13:37:14.945Z,9656
2019-05-26T13:38:29.633Z,9772
2019-05-26T13:39:15.015Z,9948
2019-05-26T13:40:15.883Z,10196
2019-05-26T13:41:29.731Z,10176
2019-05-26T13:42:15.089Z,10164
2019-05-26T13:43:15.100Z,10056
2019-05-26T13:45:28.542Z,10112
2019-05-26T13:46:15.250Z,10180
2019-05-26T13:47:30.114Z,10428
2019-05-26T13:48:15.242Z,10688
2019-05-26T13:49:15.267Z,11144
2019-05-26T13:50:15.316Z,11232
2019-05-26T13:51:15.310Z,11236
2019-05-26T13:52:15.352Z,11040
2019-05-26T13:53:30.030Z,10604
2019-05-26T13:54:15.392Z,10472
2019-05-26T13:55:15.424Z,10460
2019-05-26T13:56:15.449Z,10236
2019-05-26T13:57:15.467Z,9924
2019-05-26T13:58:30.161Z,9440
2019-05-26T13:59:15.529Z,9284
2019-05-26T14:00:16.288Z,9180
2019-05-26T14:01:30.254Z,9024
2019-05-26T14:02:15.600Z,8780
2019-05-26T14:03:15.671Z,8480
2019-05-26T14:04:15.903Z,8296
2019-05-26T14:05:30.350Z,8356
2019-05-26T14:06:15.921Z,8432
2019-05-26T14:07:15.743Z,8520
2019-05-26T14:08:15.789Z,8608
2019-05-26T14:09:15.787Z,8628
2019-05-26T14:10:30.512Z,8652